createdAt,value
2022-08-12T00:00:35.142Z,81.80
2022-08-12T00:03:20.738Z,82.22
2022-08-12T00:06:06.515Z,81.94
2022-08-12T00:08:52.751Z,81.81
2022-08-12T00:11:38.694Z,84.26
2022-08-12T00:14:24.272Z,83.51
2022-08-12T00:17:09.677Z,83.18
2022-08-12T00:19:54.558Z,86.42
2022-08-12T00:22:39.922Z,86.45
2022-08-12T00:26:05.645Z,86.42
2022-08-12T00:28:30.527Z,86.92
2022-08-12T00:31:15.540Z,86.76
2022-08-12T00:34:00.691Z,87.58
2022-08-12T00:36:50.317Z,85.62
2022-08-12T00:39:36.229Z,86.64
2022-08-12T00:42:12.277Z,86.48
2022-08-12T00:44:43.828Z,87.87
2022-08-12T00:47:25.535Z,88.50
2022-08-12T00:49:53.591Z,88.02
2022-08-12T00:52:21.073Z,91.46
2022-08-12T00:54:52.948Z,93.60
2022-08-12T00:57:22.611Z,92.34
2022-08-12T00:59:53.285Z,91.85
2022-08-12T01:02:27.652Z,92.67
2022-08-12T01:05:18.366Z,91.39
2022-08-12T01:08:04.862Z,91.14
2022-08-12T01:10:51.338Z,91.54
2022-08-12T01:13:19.953Z,93.77
2022-08-12T01:15:53.277Z,95.23
2022-08-12T01:18:21.244Z,96.16
2022-08-12T01:21:08.833Z,94.62
2022-08-12T01:23:46.492Z,93.86
2022-08-12T01:26:23.807Z,94.39
2022-08-12T01:28:55.298Z,96.69
2022-08-12T01:31:23.614Z,97.04
2022-08-12T01:34:28.753Z,97.64
2022-08-12T01:36:58.639Z,98.52
2022-08-12T01:39:30.230Z,98.79
2022-08-12T01:42:00.259Z,98.51
2022-08-12T01:44:28.728Z,98.26
2022-08-12T01:47:09.852Z,98.84
2022-08-12T01:49:43.091Z,99.00
2022-08-12T01:52:27.191Z,100.00
2022-08-12T01:54:53.764Z,99.12
2022-08-12T01:57:57.822Z,99.21
2022-08-12T02:00:55.397Z,100.00
2022-08-12T02:03:50.583Z,100.00
2022-08-12T02:06:48.658Z,100.00
2022-08-12T02:09:39.766Z,100.00
2022-08-12T02:12:27.606Z,100.00
2022-08-12T02:15:12.938Z,100.00
2022-08-12T02:17:56.032Z,100.00
2022-08-12T02:20:35.482Z,100.00
2022-08-12T02:23:16.070Z,100.00
2022-08-12T02:25:44.957Z,100.00
2022-08-12T02:28:11.698Z,100.00
2022-08-12T02:30:42.298Z,100.00
2022-08-12T02:33:10.398Z,100.00
2022-08-12T02:35:37.505Z,100.00
2022-08-12T02:38:06.834Z,100.00
2022-08-12T02:40:36.527Z,100.00
2022-08-12T02:43:14.579Z,100.00
2022-08-12T02:45:55.581Z,100.00
2022-08-12T02:48:27.105Z,100.00
2022-08-12T02:50:58.095Z,100.00
2022-08-12T02:53:24.583Z,100.00
2022-08-12T02:55:50.996Z,100.00
2022-08-12T02:58:19.832Z,100.00
2022-08-12T03:00:51.951Z,100.00
2022-08-12T03:03:19.389Z,100.00
2022-08-12T03:05:59.065Z,100.00
2022-08-12T03:08:31.832Z,100.00
2022-08-12T03:11:03.640Z,100.00
2022-08-12T03:13:33.238Z,100.00
2022-08-12T03:15:59.773Z,100.00
2022-08-12T03:18:31.900Z,100.00
2022-08-12T03:21:01.397Z,100.00
2022-08-12T03:23:31.024Z,100.00
2022-08-12T03:26:02.647Z,100.00
2022-08-12T03:28:54.198Z,100.00
2022-08-12T03:31:25.443Z,100.00
2022-08-12T03:34:02.355Z,100.00
2022-08-12T03:36:33.341Z,100.00
2022-08-12T03:39:20.131Z,100.00
2022-08-12T03:42:10.384Z,100.00
2022-08-12T03:45:17.399Z,100.00
2022-08-12T03:48:22.598Z,100.00
2022-08-12T03:51:07.895Z,100.00
2022-08-12T03:53:53.450Z,100.00
2022-08-12T03:56:38.734Z,100.00
2022-08-12T03:59:24.996Z,100.00
2022-08-12T04:01:57.047Z,100.00
2022-08-12T04:04:35.071Z,100.00
2022-08-12T04:07:09.168Z,100.00
2022-08-12T04:09:40.593Z,100.00
2022-08-12T04:12:26.727Z,100.00
2022-08-12T04:14:59.933Z,100.00
2022-08-12T04:17:28.578Z,100.00
2022-08-12T04:19:56.448Z,100.00
2022-08-12T04:22:25.634Z,100.00
2022-08-12T04:24:53.820Z,100.00
2022-08-12T04:27:20.438Z,100.00
2022-08-12T04:30:20.998Z,100.00
2022-08-12T04:32:36.838Z,100.00
2022-08-12T04:35:05.470Z,100.00
2022-08-12T04:37:58.333Z,100.00
2022-08-12T04:40:28.518Z,100.00
2022-08-12T04:42:55.864Z,100.00
2022-08-12T04:45:22.596Z,100.00
2022-08-12T04:47:49.437Z,100.00
2022-08-12T04:50:34.803Z,100.00
2022-08-12T04:53:06.656Z,100.00
2022-08-12T04:55:34.805Z,100.00
2022-08-12T04:58:01.452Z,100.00
2022-08-12T05:00:27.890Z,100.00
2022-08-12T05:02:54.414Z,100.00
2022-08-12T05:05:22.949Z,100.00
2022-08-12T05:07:54.218Z,100.00
2022-08-12T05:10:21.695Z,100.00
2022-08-12T05:13:03.198Z,100.00
2022-08-12T05:15:30.354Z,100.00
2022-08-12T05:18:00.250Z,100.00
2022-08-12T05:20:29.503Z,100.00
2022-08-12T05:23:13.012Z,100.00
2022-08-12T05:25:44.879Z,100.00
2022-08-12T05:28:13.021Z,100.00
2022-08-12T05:30:41.282Z,100.00
2022-08-12T05:33:08.463Z,100.00
2022-08-12T05:35:40.063Z,100.00
2022-08-12T05:38:25.958Z,100.00
2022-08-12T05:40:52.533Z,100.00
2022-08-12T05:43:20.782Z,100.00
2022-08-12T05:45:47.616Z,100.00
2022-08-12T05:48:14.219Z,100.00
2022-08-12T05:50:41.978Z,100.00
2022-08-12T05:53:08.522Z,100.00
2022-08-12T05:55:36.357Z,100.00
2022-08-12T05:58:04.776Z,100.00
2022-08-12T06:00:32.218Z,100.00
2022-08-12T06:03:02.111Z,100.00
2022-08-12T06:05:29.984Z,100.00
2022-08-12T06:08:01.258Z,100.00
2022-08-12T06:10:32.519Z,100.00
2022-08-12T06:13:02.321Z,100.00
2022-08-12T06:15:29.517Z,100.00
2022-08-12T06:18:05.297Z,100.00
2022-08-12T06:20:41.402Z,100.00
2022-08-12T06:23:08.030Z,100.00
2022-08-12T06:25:34.527Z,100.00
2022-08-12T06:28:07.839Z,100.00
2022-08-12T06:30:38.673Z,100.00
2022-08-12T06:33:24.817Z,100.00
2022-08-12T06:35:57.524Z,100.00
2022-08-12T06:38:26.059Z,93.49
2022-08-12T06:41:13.785Z,94.78
2022-08-12T06:44:04.476Z,85.66
2022-08-12T06:46:28.935Z,86.65
2022-08-12T06:48:58.767Z,82.70
2022-08-12T06:51:30.168Z,84.50
2022-08-12T06:53:57.888Z,85.79
2022-08-12T06:56:39.888Z,84.82
2022-08-12T06:59:14.091Z,85.32
2022-08-12T07:01:40.583Z,90.19
2022-08-12T07:04:35.930Z,90.91
2022-08-12T07:07:04.569Z,88.97
2022-08-12T07:10:04.088Z,89.91
2022-08-12T07:12:19.669Z,88.73
2022-08-12T07:14:51.408Z,90.53
2022-08-12T07:17:18.159Z,89.88
2022-08-12T07:19:46.764Z,88.63
2022-08-12T07:22:15.378Z,85.86
2022-08-12T07:24:42.208Z,82.84
2022-08-12T07:27:08.716Z,84.58
2022-08-12T07:30:03.547Z,80.39
2022-08-12T07:32:24.406Z,78.83
2022-08-12T07:34:50.994Z,72.50
2022-08-12T07:37:17.802Z,68.04
2022-08-12T07:39:50.811Z,69.84
2022-08-12T07:42:26.536Z,72.32
2022-08-12T07:44:53.273Z,66.16
2022-08-12T07:47:19.717Z,62.24
2022-08-12T07:50:04.878Z,65.56
2022-08-12T07:52:32.836Z,66.40
2022-08-12T07:55:00.210Z,65.05
2022-08-12T07:57:26.713Z,63.93
2022-08-12T07:59:55.657Z,64.14
2022-08-12T08:02:35.992Z,60.26
2022-08-12T08:05:03.650Z,60.02
2022-08-12T08:07:30.756Z,55.55
2022-08-12T08:09:59.437Z,54.44
2022-08-12T08:12:48.356Z,57.12
2022-08-12T08:15:16.382Z,56.77
2022-08-12T08:18:01.318Z,54.95
2022-08-12T08:20:29.849Z,53.29
2022-08-12T08:22:58.125Z,52.24
2022-08-12T08:25:35.581Z,50.98
2022-08-12T08:28:08.148Z,52.83
2022-08-12T08:30:38.191Z,52.45
2022-08-12T08:33:23.568Z,54.34
2022-08-12T08:35:54.278Z,52.57
2022-08-12T08:38:33.268Z,51.56
2022-08-12T08:42:15.824Z,48.31
2022-08-12T08:44:07.762Z,46.74
2022-08-12T08:46:37.397Z,47.67
2022-08-12T08:49:05.144Z,46.79
2022-08-12T08:51:31.653Z,50.04
2022-08-12T08:53:58.103Z,49.72
2022-08-12T08:56:24.543Z,50.37
2022-08-12T08:58:51.850Z,48.07
2022-08-12T09:01:22.361Z,47.78
2022-08-12T09:05:10.123Z,44.71
2022-08-12T09:06:37.732Z,44.29
2022-08-12T09:09:13.343Z,44.21
2022-08-12T09:12:10.604Z,46.56
2022-08-12T09:14:46.834Z,46.37
2022-08-12T09:17:20.833Z,46.36
2022-08-12T09:19:52.250Z,42.13
2022-08-12T09:22:29.186Z,40.55
2022-08-12T09:24:56.327Z,43.22
2022-08-12T09:27:57.789Z,43.78
2022-08-12T09:30:15.704Z,44.09
2022-08-12T09:33:04.680Z,42.70
2022-08-12T09:35:44.272Z,42.35
2022-08-12T09:38:29.929Z,42.58
2022-08-12T09:42:08.334Z,42.75
2022-08-12T09:44:06.539Z,39.85
2022-08-12T09:46:52.920Z,39.11
2022-08-12T09:49:19.422Z,37.79
2022-08-12T09:51:50.634Z,39.57
2022-08-12T09:54:33.901Z,37.39
2022-08-12T09:58:45.790Z,38.10
2022-08-12T10:00:17.148Z,37.34
2022-08-12T10:02:58.895Z,37.96
2022-08-12T10:06:26.531Z,36.69
2022-08-12T10:08:15.594Z,36.19
2022-08-12T10:11:05.920Z,35.37
2022-08-12T10:13:43.344Z,34.06
2022-08-12T10:16:18.733Z,33.93
2022-08-12T10:18:55.532Z,33.45
2022-08-12T10:21:36.350Z,33.97
2022-08-12T10:24:20.098Z,33.57
2022-08-12T10:27:05.881Z,33.38
2022-08-12T10:30:03.737Z,33.08
2022-08-12T10:32:45.540Z,33.63
2022-08-12T10:35:20.041Z,35.05
2022-08-12T10:38:33.600Z,33.01
2022-08-12T10:40:37.523Z,33.12
2022-08-12T10:43:22.571Z,33.58
2022-08-12T10:45:50.353Z,32.95
2022-08-12T10:48:27.099Z,32.11
2022-08-12T10:51:49.002Z,33.02
2022-08-12T10:53:52.487Z,34.40
2022-08-12T10:56:19.234Z,33.80
2022-08-12T10:58:47.216Z,33.22
2022-08-12T11:01:50.440Z,33.62
2022-08-12T11:04:24.693Z,34.32
2022-08-12T11:07:06.997Z,33.09
2022-08-12T11:09:55.947Z,32.64
2022-08-12T11:12:54.658Z,31.94
2022-08-12T11:15:19.468Z,31.91
2022-08-12T11:17:53.286Z,33.64
2022-08-12T11:20:20.818Z,29.83
2022-08-12T11:23:04.140Z,32.92
2022-08-12T11:25:58.315Z,31.17
2022-08-12T11:28:34.685Z,32.23
2022-08-12T11:31:05.073Z,32.05
2022-08-12T11:34:04.138Z,32.34
2022-08-12T11:36:17.889Z,31.80
2022-08-12T11:38:50.689Z,28.79
2022-08-12T11:41:31.462Z,30.65
2022-08-12T11:44:24.070Z,29.04
2022-08-12T11:46:46.796Z,29.49
2022-08-12T11:49:26.923Z,28.14
2022-08-12T11:52:02.717Z,27.93
2022-08-12T11:54:30.207Z,28.35
2022-08-12T11:57:01.989Z,28.70
2022-08-12T12:02:20.520Z,27.36
2022-08-12T12:04:52.941Z,28.50
2022-08-12T12:08:35.968Z,26.65
2022-08-12T12:10:11.486Z,27.04
2022-08-12T12:12:37.997Z,27.73
2022-08-12T12:15:09.687Z,26.05
2022-08-12T12:17:38.468Z,25.80
2022-08-12T12:20:10.516Z,25.31
2022-08-12T12:22:39.571Z,26.14
2022-08-12T12:25:12.745Z,25.19
2022-08-12T12:28:04.530Z,25.06
2022-08-12T12:30:32.621Z,25.21
2022-08-12T12:32:59.435Z,24.60
2022-08-12T12:36:19.689Z,23.68
2022-08-12T12:38:14.196Z,24.13
2022-08-12T12:40:44.495Z,24.22
2022-08-12T12:43:12.760Z,24.83
2022-08-12T12:45:44.366Z,23.71
2022-08-12T12:48:17.389Z,23.88
2022-08-12T12:51:10.753Z,24.18
2022-08-12T12:54:07.619Z,24.67
2022-08-12T12:56:34.231Z,24.72
2022-08-12T12:59:03.423Z,23.96
2022-08-12T13:01:30.934Z,24.10
2022-08-12T13:04:02.564Z,24.07
2022-08-12T13:06:30.839Z,23.89
2022-08-12T13:09:03.063Z,24.40
2022-08-12T13:11:41.282Z,24.04
2022-08-12T13:14:28.651Z,22.72
2022-08-12T13:16:57.410Z,23.60
2022-08-12T13:19:25.465Z,22.63
2022-08-12T13:22:21.660Z,23.42
2022-08-12T13:24:55.736Z,21.95
2022-08-12T13:27:34.474Z,22.78
2022-08-12T13:30:06.553Z,21.58
2022-08-12T13:32:33.165Z,23.52
2022-08-12T13:35:04.683Z,23.21
2022-08-12T13:37:54.760Z,23.38
2022-08-12T13:40:29.589Z,23.31
2022-08-12T13:42:57.601Z,22.11
2022-08-12T13:45:29.059Z,22.22
2022-08-12T13:48:03.583Z,21.19
2022-08-12T13:50:40.446Z,22.65
2022-08-12T13:53:24.204Z,21.70
2022-08-12T13:56:01.530Z,21.53
2022-08-12T13:58:30.962Z,21.87
2022-08-12T14:01:04.542Z,22.36
2022-08-12T14:03:51.319Z,22.33
2022-08-12T14:06:17.396Z,22.43
2022-08-12T14:08:44.152Z,23.57
2022-08-12T14:11:12.532Z,23.11
2022-08-12T14:14:05.797Z,23.52
2022-08-12T14:16:37.905Z,23.95
2022-08-12T14:19:24.279Z,24.08
2022-08-12T14:21:58.829Z,23.03
2022-08-12T14:24:27.343Z,22.04
2022-08-12T14:26:57.394Z,21.52
2022-08-12T14:29:55.665Z,22.05
2022-08-12T14:32:16.401Z,22.19
2022-08-12T14:34:44.073Z,21.87
2022-08-12T14:37:13.112Z,22.10
2022-08-12T14:39:57.084Z,22.47
2022-08-12T14:42:23.654Z,23.49
2022-08-12T14:44:57.929Z,23.86
2022-08-12T14:47:26.752Z,23.49
2022-08-12T14:50:37.503Z,23.75
2022-08-12T14:54:14.138Z,24.42
2022-08-12T14:58:20.454Z,25.65
2022-08-12T15:01:06.715Z,25.98
2022-08-12T15:03:52.884Z,26.07
2022-08-12T15:06:43.819Z,26.61
2022-08-12T15:09:09.314Z,26.81
2022-08-12T15:11:54.880Z,27.33
2022-08-12T15:14:26.543Z,27.96
2022-08-12T15:16:54.154Z,27.85
2022-08-12T15:20:11.529Z,26.36
2022-08-12T15:22:38.265Z,26.97
2022-08-12T15:24:53.647Z,27.56
2022-08-12T15:27:22.512Z,26.89
2022-08-12T15:29:58.297Z,26.68
2022-08-12T15:32:31.731Z,26.94
2022-08-12T15:35:00.333Z,27.94
2022-08-12T15:38:09.065Z,27.79
2022-08-12T15:40:13.548Z,27.97
2022-08-12T15:42:40.023Z,28.52
2022-08-12T15:45:08.661Z,27.33
2022-08-12T15:47:49.521Z,27.06
2022-08-12T15:50:23.175Z,27.51
2022-08-12T15:52:54.012Z,27.93
2022-08-12T15:55:21.573Z,27.93
2022-08-12T15:57:53.391Z,28.08
2022-08-12T16:00:32.875Z,28.08
2022-08-12T16:03:02.177Z,28.11
2022-08-12T16:06:11.810Z,28.47
2022-08-12T16:08:27.604Z,28.14
2022-08-12T16:10:54.516Z,27.29
2022-08-12T16:13:32.222Z,27.81
2022-08-12T16:16:03.490Z,29.17
2022-08-12T16:18:33.289Z,29.18
2022-08-12T16:21:00.384Z,28.64
2022-08-12T16:23:52.151Z,27.86
2022-08-12T16:26:15.073Z,28.56
2022-08-12T16:28:42.695Z,29.57
2022-08-12T16:31:13.348Z,29.46
2022-08-12T16:33:58.695Z,30.35
2022-08-12T16:36:28.623Z,28.32
2022-08-12T16:38:55.010Z,29.60
2022-08-12T16:41:22.442Z,30.77
2022-08-12T16:43:49.117Z,29.37
2022-08-12T16:46:31.654Z,29.31
2022-08-12T16:48:59.533Z,28.86
2022-08-12T16:51:30.460Z,30.26
2022-08-12T16:54:04.063Z,30.99
2022-08-12T16:56:35.445Z,31.44
2022-08-12T16:59:16.160Z,31.32
2022-08-12T17:01:45.807Z,31.29
2022-08-12T17:04:12.704Z,30.53
2022-08-12T17:06:47.843Z,31.83
2022-08-12T17:09:17.965Z,31.79
2022-08-12T17:11:49.142Z,32.12
2022-08-12T17:14:23.152Z,31.91
2022-08-12T17:16:54.658Z,31.71
2022-08-12T17:20:02.643Z,32.87
2022-08-12T17:22:08.816Z,33.85
2022-08-12T17:24:38.287Z,32.87
2022-08-12T17:27:16.405Z,34.12
2022-08-12T17:30:02.970Z,33.74
2022-08-12T17:32:33.400Z,32.82
2022-08-12T17:35:18.608Z,34.50
2022-08-12T17:37:48.346Z,33.23
2022-08-12T17:40:34.598Z,35.35
2022-08-12T17:43:04.670Z,34.57
2022-08-12T17:45:52.595Z,34.82
2022-08-12T17:48:21.704Z,34.15
2022-08-12T17:50:50.698Z,35.18
2022-08-12T17:53:18.988Z,33.74
2022-08-12T17:55:51.639Z,35.05
2022-08-12T17:58:35.641Z,35.14
2022-08-12T18:01:04.355Z,34.03
2022-08-12T18:04:06.977Z,36.00
2022-08-12T18:06:17.989Z,35.05
2022-08-12T18:08:55.120Z,33.90
2022-08-12T18:12:05.453Z,35.08
2022-08-12T18:14:28.888Z,33.87
2022-08-12T18:16:56.868Z,34.73
2022-08-12T18:19:23.707Z,36.08
2022-08-12T18:22:02.069Z,35.65
2022-08-12T18:24:29.988Z,37.11
2022-08-12T18:26:56.569Z,35.86
2022-08-12T18:29:23.834Z,38.01
2022-08-12T18:31:58.812Z,38.49
2022-08-12T18:34:27.690Z,37.81
2022-08-12T18:36:55.589Z,38.43
2022-08-12T18:39:22.370Z,38.94
2022-08-12T18:41:49.752Z,39.39
2022-08-12T18:44:16.166Z,40.57
2022-08-12T18:46:55.731Z,41.11
2022-08-12T18:49:31.918Z,39.73
2022-08-12T18:52:04.701Z,42.41
2022-08-12T18:54:34.891Z,41.13
2022-08-12T18:57:06.923Z,42.56
2022-08-12T19:00:00.101Z,42.21
2022-08-12T19:02:31.982Z,42.69
2022-08-12T19:04:58.831Z,42.78
2022-08-12T19:07:29.564Z,43.73
2022-08-12T19:10:13.406Z,43.54
2022-08-12T19:12:59.436Z,43.44
2022-08-12T19:15:27.158Z,44.49
2022-08-12T19:18:01.141Z,45.10
2022-08-12T19:20:30.694Z,43.90
2022-08-12T19:22:59.813Z,42.98
2022-08-12T19:25:59.694Z,43.61
2022-08-12T19:28:29.985Z,44.28
2022-08-12T19:31:23.117Z,44.15
2022-08-12T19:36:55.946Z,44.64
2022-08-12T19:39:23.136Z,45.52
2022-08-12T19:42:01.328Z,46.10
2022-08-12T19:44:29.248Z,45.28
2022-08-12T19:46:56.048Z,44.38
2022-08-12T19:49:23.087Z,46.13
2022-08-12T19:51:49.581Z,46.41
2022-08-12T19:54:22.902Z,46.73
2022-08-12T19:56:52.143Z,46.37
2022-08-12T19:59:43.458Z,47.36
2022-08-12T20:02:21.628Z,47.01
2022-08-12T20:06:04.701Z,47.07
2022-08-12T20:07:56.751Z,48.39
2022-08-12T20:10:24.928Z,49.03
2022-08-12T20:13:19.123Z,48.90
2022-08-12T20:15:51.043Z,48.84
2022-08-12T20:18:53.442Z,48.27
2022-08-12T20:21:14.923Z,48.59
2022-08-12T20:24:00.468Z,49.90
2022-08-12T20:26:27.681Z,50.30
2022-08-12T20:28:54.773Z,51.14
2022-08-12T20:31:21.228Z,50.70
2022-08-12T20:33:50.732Z,51.18
2022-08-12T20:36:41.611Z,51.42
2022-08-12T20:39:34.085Z,52.17
2022-08-12T20:42:07.113Z,51.49
2022-08-12T20:44:36.328Z,52.73
2022-08-12T20:47:16.683Z,51.48
2022-08-12T20:49:45.791Z,51.81
2022-08-12T20:52:15.176Z,51.92
2022-08-12T20:54:50.093Z,52.81
2022-08-12T20:57:19.328Z,53.64
2022-08-12T20:59:48.204Z,53.71
2022-08-12T21:02:24.349Z,53.92
2022-08-12T21:05:20.176Z,54.61
2022-08-12T21:07:52.346Z,54.35
2022-08-12T21:10:20.957Z,54.51
2022-08-12T21:12:48.183Z,54.24
2022-08-12T21:15:23.152Z,53.92
2022-08-12T21:18:07.897Z,54.27
2022-08-12T21:20:38.344Z,55.08
2022-08-12T21:23:06.377Z,56.10
2022-08-12T21:25:44.775Z,56.24
2022-08-12T21:28:13.428Z,56.75
2022-08-12T21:31:11.405Z,56.75
2022-08-12T21:33:31.299Z,56.31
2022-08-12T21:35:58.167Z,56.50
2022-08-12T21:38:26.378Z,56.30
2022-08-12T21:41:09.004Z,55.88
2022-08-12T21:43:44.505Z,56.14
2022-08-12T21:46:14.967Z,55.99
2022-08-12T21:49:01.328Z,57.80
2022-08-12T21:51:49.608Z,57.64
2022-08-12T21:54:22.083Z,58.24
2022-08-12T21:56:49.312Z,58.66
2022-08-12T21:59:17.831Z,59.67
2022-08-12T22:01:49.129Z,58.72
2022-08-12T22:04:34.811Z,58.62
2022-08-12T22:07:01.685Z,59.35
2022-08-12T22:09:29.477Z,59.78
2022-08-12T22:12:27.970Z,60.10
2022-08-12T22:14:54.458Z,60.82
2022-08-12T22:17:20.939Z,60.79
2022-08-12T22:19:50.420Z,60.82
2022-08-12T22:22:16.858Z,62.77
2022-08-12T22:24:45.458Z,63.54
2022-08-12T22:27:22.986Z,63.52
2022-08-12T22:30:19.589Z,63.00
2022-08-12T22:32:51.559Z,62.78
2022-08-12T22:35:47.634Z,62.77
2022-08-12T22:38:23.930Z,64.78
2022-08-12T22:41:00.584Z,64.61
2022-08-12T22:44:00.925Z,64.76
2022-08-12T22:46:51.816Z,64.38
2022-08-12T22:49:20.736Z,64.49
2022-08-12T22:52:01.347Z,64.94
2022-08-12T22:54:37.062Z,64.02
2022-08-12T22:57:05.128Z,66.42
2022-08-12T22:59:55.482Z,64.55
2022-08-12T23:02:29.104Z,64.82
2022-08-12T23:04:57.666Z,65.58
2022-08-12T23:07:24.191Z,64.80
2022-08-12T23:09:50.938Z,65.87
2022-08-12T23:12:46.935Z,67.75
2022-08-12T23:15:15.557Z,69.36
2022-08-12T23:17:42.617Z,66.83
2022-08-12T23:20:11.002Z,66.52
2022-08-12T23:22:38.356Z,66.88
2022-08-12T23:25:05.256Z,67.16
2022-08-12T23:27:55.894Z,67.98
2022-08-12T23:30:31.981Z,69.19
2022-08-12T23:33:19.798Z,67.86
2022-08-12T23:35:58.893Z,69.63
2022-08-12T23:38:32.313Z,70.14
2022-08-12T23:41:01.611Z,70.54
2022-08-12T23:43:39.472Z,70.41
2022-08-12T23:46:09.548Z,71.27
2022-08-12T23:48:37.400Z,71.14
2022-08-12T23:51:21.777Z,70.59
2022-08-12T23:53:50.507Z,71.71
2022-08-12T23:56:16.938Z,73.74
2022-08-12T23:58:49.593Z,71.62
